Time;durP1;ratioP1;P1;durP2;ratioP2;P2;SDS_P1;SDS_P2;PMS_P1;PMS_P2;Temp;Humidity;BMP_temperature;BMP_pressure;BME280_temperature;BME280_humidity;BME280_pressure;Samples;Min_cycle;Max_cycle;Signal;HPM_P1;HPM_P2
2021/05/02 00:01:11;;;;;;;26.58;18.23;;;7.00;99.90;;;;;;5095714;28;20465;-65
2021/05/02 00:03:37;;;;;;;27.02;18.30;;;6.90;99.90;;;;;;5094700;28;20024;-65
2021/05/02 00:06:05;;;;;;;27.70;19.27;;;6.80;99.90;;;;;;5095902;28;20024;-64
2021/05/02 00:08:30;;;;;;;27.90;19.27;;;6.80;99.90;;;;;;5093973;28;20028;-65
2021/05/02 00:10:56;;;;;;;28.80;19.80;;;6.80;99.90;;;;;;5077342;28;20031;-64
2021/05/02 00:13:22;;;;;;;26.15;19.17;;;6.70;99.90;;;;;;5095753;28;20027;-64
2021/05/02 00:15:47;;;;;;;28.17;19.30;;;6.80;99.90;;;;;;5095705;28;20095;-64
2021/05/02 00:18:14;;;;;;;27.80;19.48;;;6.80;99.90;;;;;;5095387;28;20070;-64
2021/05/02 00:20:40;;;;;;;30.42;19.60;;;6.80;99.90;;;;;;5095584;28;20035;-64
2021/05/02 00:23:05;;;;;;;31.88;19.23;;;6.80;99.90;;;;;;5095607;28;20024;-64
2021/05/02 00:25:33;;;;;;;27.55;18.60;;;6.80;99.90;;;;;;5095483;28;20020;-65
2021/05/02 00:28:05;;;;;;;32.95;19.83;;;6.70;99.90;;;;;;5094262;28;20068;-65
2021/05/02 00:30:31;;;;;;;35.35;18.98;;;6.70;99.90;;;;;;5078183;28;20024;-64
2021/05/02 00:32:56;;;;;;;29.33;19.85;;;6.70;99.90;;;;;;5094515;28;20166;-64
2021/05/02 00:35:24;;;;;;;28.00;17.80;;;6.70;99.90;;;;;;5095007;28;20051;-64
2021/05/02 00:37:51;;;;;;;31.52;19.02;;;6.70;99.90;;;;;;5094679;28;20481;-65
2021/05/02 00:40:31;;;;;;;30.77;19.05;;;6.60;99.90;;;;;;5095251;28;20492;-65
2021/05/02 00:43:01;;;;;;;31.15;18.80;;;6.60;99.90;;;;;;5095203;28;20068;-65
2021/05/02 00:45:38;;;;;;;28.85;18.48;;;6.60;99.90;;;;;;5078147;28;20034;-64
2021/05/02 00:48:09;;;;;;;31.42;19.50;;;6.50;99.90;;;;;;5094860;28;20047;-65
2021/05/02 00:50:50;;;;;;;30.80;18.88;;;6.50;99.90;;;;;;5095074;28;20028;-65
2021/05/02 00:53:46;;;;;;;31.35;19.15;;;6.40;99.90;;;;;;5095044;28;20024;-64
2021/05/02 00:56:30;;;;;;;32.33;18.98;;;6.40;99.90;;;;;;5094931;28;20054;-65
2021/05/02 00:59:04;;;;;;;29.58;19.17;;;6.30;99.90;;;;;;5094957;28;20508;-65
2021/05/02 01:01:39;;;;;;;31.83;20.02;;;6.30;99.90;;;;;;5094596;28;20034;-65
2021/05/02 01:04:06;;;;;;;33.03;19.85;;;6.30;99.90;;;;;;5094590;28;20020;-65
2021/05/02 01:06:32;;;;;;;33.03;20.38;;;6.20;99.90;;;;;;5094835;28;20073;-65
2021/05/02 01:09:02;;;;;;;30.27;19.63;;;6.20;99.90;;;;;;5094679;28;20028;-64
2021/05/02 01:11:29;;;;;;;33.30;20.75;;;6.10;99.90;;;;;;5094752;28;20468;-65
2021/05/02 01:13:57;;;;;;;35.83;20.15;;;6.10;99.90;;;;;;5094415;28;20016;-64
2021/05/02 01:16:26;;;;;;;33.05;20.23;;;6.10;99.90;;;;;;5094360;28;20447;-65
2021/05/02 01:18:54;;;;;;;29.88;20.25;;;6.00;99.90;;;;;;5094613;28;20141;-65
2021/05/02 01:21:29;;;;;;;33.00;20.77;;;6.10;99.90;;;;;;5093311;28;20111;-64
2021/05/02 01:23:57;;;;;;;31.48;20.83;;;6.00;99.90;;;;;;5094540;28;20020;-64
2021/05/02 01:26:22;;;;;;;34.58;21.33;;;5.90;99.90;;;;;;5092779;28;20072;-64
2021/05/02 01:28:52;;;;;;;33.25;20.88;;;5.90;99.90;;;;;;5094078;28;20095;-64
2021/05/02 01:31:18;;;;;;;35.78;21.50;;;5.90;99.90;;;;;;5094431;28;20073;-65
2021/05/02 01:33:45;;;;;;;37.70;23.48;;;5.90;99.90;;;;;;5094060;28;20020;-65
2021/05/02 01:36:11;;;;;;;34.53;21.65;;;5.90;99.90;;;;;;5094366;28;20020;-65
2021/05/02 01:38:37;;;;;;;38.38;23.67;;;5.90;99.90;;;;;;5094329;28;20023;-65
2021/05/02 01:41:03;;;;;;;36.95;23.23;;;5.90;99.90;;;;;;5094339;28;20024;-65
2021/05/02 01:43:29;;;;;;;37.70;23.60;;;5.90;99.90;;;;;;5094118;28;20457;-64
2021/05/02 01:45:55;;;;;;;39.13;23.67;;;5.80;99.90;;;;;;5093894;28;20444;-65
2021/05/02 01:48:23;;;;;;;37.72;23.00;;;5.70;99.90;;;;;;5093770;28;20082;-64
2021/05/02 01:51:01;;;;;;;38.30;23.40;;;5.70;99.90;;;;;;5094172;28;20108;-64
2021/05/02 01:53:28;;;;;;;38.38;23.80;;;5.60;99.90;;;;;;5094181;28;20461;-64
2021/05/02 01:55:55;;;;;;;39.08;23.55;;;5.60;99.90;;;;;;5093870;28;20140;-65
2021/05/02 01:58:22;;;;;;;43.13;23.75;;;5.60;99.90;;;;;;5094116;28;20020;-65
2021/05/02 02:01:06;;;;;;;38.58;22.73;;;5.60;99.90;;;;;;5075418;28;20103;-65
2021/05/02 02:03:34;;;;;;;38.53;23.83;;;5.60;99.90;;;;;;5094093;28;20073;-65
2021/05/02 02:06:01;;;;;;;41.60;23.65;;;5.50;99.90;;;;;;5092332;28;20100;-66
2021/05/02 02:08:26;;;;;;;40.33;23.30;;;5.40;99.90;;;;;;5093950;28;20077;-65
2021/05/02 02:10:52;;;;;;;39.05;24.38;;;5.50;99.90;;;;;;5093985;28;20032;-64
2021/05/02 02:13:19;;;;;;;41.70;24.35;;;5.50;99.90;;;;;;5093741;28;20024;-64
2021/05/02 02:15:46;;;;;;;41.35;24.20;;;5.50;99.90;;;;;;5093967;28;20028;-64
2021/05/02 02:18:15;;;;;;;41.67;25.02;;;5.40;99.90;;;;;;5093949;28;20016;-64
2021/05/02 02:20:43;;;;;;;44.53;25.05;;;5.40;99.90;;;;;;5093898;28;20051;-65
2021/05/02 02:23:17;;;;;;;44.45;25.63;;;5.30;99.90;;;;;;5093331;28;20020;-64
2021/05/02 02:25:44;;;;;;;44.42;24.38;;;5.20;99.90;;;;;;5092749;28;20030;-64
2021/05/02 02:28:13;;;;;;;43.50;24.25;;;5.30;99.90;;;;;;5093815;28;20080;-65
2021/05/02 02:30:42;;;;;;;44.80;24.95;;;5.30;99.90;;;;;;5093812;28;20136;-64
2021/05/02 02:33:08;;;;;;;44.83;25.65;;;5.40;99.90;;;;;;5091987;28;20099;-65
2021/05/02 02:35:40;;;;;;;42.60;25.42;;;5.50;99.90;;;;;;5093210;28;20099;-64
2021/05/02 02:38:09;;;;;;;44.47;25.00;;;5.50;99.90;;;;;;5093509;28;20048;-64
2021/05/02 02:40:37;;;;;;;40.53;24.30;;;5.60;99.90;;;;;;5093726;28;20024;-64
2021/05/02 02:43:04;;;;;;;39.63;23.15;;;5.70;99.90;;;;;;5093734;28;20028;-65
2021/05/02 02:45:35;;;;;;;40.75;21.63;;;5.60;99.90;;;;;;5093120;28;20136;-65
2021/05/02 02:48:04;;;;;;;38.95;22.95;;;5.60;99.90;;;;;;5093390;28;20075;-65
2021/05/02 02:50:31;;;;;;;41.30;23.00;;;5.50;99.90;;;;;;5092151;28;20093;-65
2021/05/02 02:53:02;;;;;;;35.42;21.52;;;5.50;99.90;;;;;;5093636;28;20110;-64
2021/05/02 02:55:29;;;;;;;36.72;21.52;;;5.40;99.90;;;;;;5091755;28;20469;-64
2021/05/02 02:57:59;;;;;;;35.88;21.33;;;5.40;99.90;;;;;;5097208;28;20032;-65
2021/05/02 03:00:28;;;;;;;38.20;22.70;;;5.30;99.90;;;;;;5097231;28;20027;-64
2021/05/02 03:03:08;;;;;;;36.80;21.95;;;5.20;99.90;;;;;;5097181;28;20542;-65
2021/05/02 03:05:37;;;;;;;36.85;20.98;;;5.10;99.90;;;;;;5097123;28;20025;-65
2021/05/02 03:08:04;;;;;;;38.20;22.15;;;5.10;99.90;;;;;;5095939;28;20051;-64
2021/05/02 03:10:31;;;;;;;35.60;21.77;;;5.10;99.90;;;;;;5096959;28;20115;-64
2021/05/02 03:12:58;;;;;;;34.47;21.65;;;5.20;99.90;;;;;;5096963;28;20157;-64
2021/05/02 03:15:24;;;;;;;39.55;21.67;;;5.20;99.90;;;;;;5095113;28;20498;-65
2021/05/02 03:18:16;;;;;;;39.53;23.00;;;5.30;99.90;;;;;;5096328;28;20095;-65
2021/05/02 03:20:45;;;;;;;36.03;21.65;;;5.40;99.90;;;;;;5096742;28;20136;-64
2021/05/02 03:23:15;;;;;;;38.90;21.83;;;5.40;99.90;;;;;;5096473;28;20027;-64
2021/05/02 03:25:43;;;;;;;38.05;22.10;;;5.30;99.90;;;;;;5096702;28;20099;-65
2021/05/02 03:28:13;;;;;;;37.45;21.27;;;5.30;99.90;;;;;;5096678;28;20027;-65
2021/05/02 03:30:42;;;;;;;40.05;20.50;;;5.20;99.90;;;;;;5094759;28;20020;-65
2021/05/02 03:33:11;;;;;;;37.45;20.80;;;5.30;99.90;;;;;;5096291;28;20051;-64
2021/05/02 03:35:40;;;;;;;38.38;20.83;;;5.30;99.90;;;;;;5096502;28;20051;-65
2021/05/02 03:38:34;;;;;;;34.22;20.15;;;5.30;99.90;;;;;;5095941;28;20103;-64
2021/05/02 03:41:00;;;;;;;39.08;20.63;;;5.20;99.90;;;;;;5096441;28;20048;-65
2021/05/02 03:43:26;;;;;;;37.45;20.65;;;5.20;99.90;;;;;;5096119;28;20028;-65
2021/05/02 03:45:51;;;;;;;35.53;20.83;;;5.20;99.90;;;;;;5094503;28;20078;-64
2021/05/02 03:48:17;;;;;;;36.38;21.00;;;5.30;99.90;;;;;;5095790;28;20052;-64
2021/05/02 03:50:43;;;;;;;36.60;20.83;;;5.30;99.90;;;;;;5094405;28;20119;-64
2021/05/02 03:53:08;;;;;;;35.20;19.27;;;5.30;99.90;;;;;;5096218;28;20027;-65
2021/05/02 03:55:43;;;;;;;36.88;19.88;;;5.40;99.90;;;;;;5095010;28;20107;-64
2021/05/02 03:58:10;;;;;;;34.50;19.15;;;5.40;99.90;;;;;;5096124;28;20402;-64
2021/05/02 04:00:36;;;;;;;29.23;18.75;;;5.40;99.90;;;;;;5094612;28;20020;-64
2021/05/02 04:03:02;;;;;;;31.80;18.10;;;5.40;99.90;;;;;;5095992;28;20479;-64
2021/05/02 04:05:28;;;;;;;34.35;19.17;;;5.40;99.90;;;;;;5095634;28;20035;-64
2021/05/02 04:07:53;;;;;;;32.78;19.65;;;5.40;99.90;;;;;;5095617;28;20028;-64
2021/05/02 04:10:19;;;;;;;35.88;19.13;;;5.40;99.90;;;;;;5095462;28;20028;-65
2021/05/02 04:12:44;;;;;;;33.33;18.52;;;5.40;99.90;;;;;;5095514;28;20024;-64
2021/05/02 04:15:11;;;;;;;31.58;19.05;;;5.50;99.90;;;;;;5095723;28;20361;-64
2021/05/02 04:17:36;;;;;;;31.35;18.10;;;5.50;99.90;;;;;;5095749;28;20074;-65
2021/05/02 04:20:02;;;;;;;32.88;17.95;;;5.50;99.90;;;;;;5093844;28;20020;-65
2021/05/02 04:22:30;;;;;;;30.58;18.77;;;5.60;99.90;;;;;;5095602;28;20056;-64
2021/05/02 04:24:56;;;;;;;30.50;17.27;;;5.60;99.90;;;;;;5095592;28;20031;-64
2021/05/02 04:27:21;;;;;;;31.23;17.42;;;5.60;99.90;;;;;;5095572;28;20032;-64
2021/05/02 04:29:47;;;;;;;30.75;18.52;;;5.60;99.90;;;;;;5095098;28;20534;-65
2021/05/02 04:32:13;;;;;;;32.03;16.80;;;5.60;99.90;;;;;;5095401;28;20389;-65
2021/05/02 04:34:38;;;;;;;31.48;16.30;;;5.60;99.90;;;;;;5095363;28;20016;-65
2021/05/02 04:37:04;;;;;;;25.38;15.63;;;5.60;99.90;;;;;;5095358;28;20375;-64
2021/05/02 04:39:29;;;;;;;25.38;15.43;;;5.70;99.90;;;;;;5095280;28;20032;-65
2021/05/02 04:41:56;;;;;;;26.92;16.52;;;5.70;99.90;;;;;;5094965;28;20361;-64
2021/05/02 04:44:23;;;;;;;25.73;14.80;;;5.70;99.90;;;;;;5093432;28;20024;-65
2021/05/02 04:46:48;;;;;;;26.02;14.80;;;5.70;99.90;;;;;;5094629;28;20062;-64
2021/05/02 04:49:14;;;;;;;27.45;15.15;;;5.80;99.90;;;;;;5094393;28;20129;-64
2021/05/02 04:51:40;;;;;;;22.17;14.65;;;5.80;99.90;;;;;;5094793;28;20028;-64
2021/05/02 04:54:07;;;;;;;21.88;13.85;;;5.80;99.90;;;;;;5095088;28;20023;-64
2021/05/02 04:56:33;;;;;;;24.85;14.52;;;5.80;99.90;;;;;;5095029;28;20069;-65
2021/05/02 04:58:58;;;;;;;21.13;13.10;;;5.80;99.90;;;;;;5094965;28;20024;-65
2021/05/02 05:01:24;;;;;;;22.45;13.90;;;5.80;99.90;;;;;;5094944;28;20073;-65
2021/05/02 05:03:50;;;;;;;24.08;13.98;;;5.90;99.90;;;;;;5094580;28;20115;-64
2021/05/02 05:06:15;;;;;;;22.42;13.18;;;5.90;99.90;;;;;;5094848;28;20031;-65
2021/05/02 05:08:41;;;;;;;21.60;13.00;;;5.80;99.90;;;;;;5094694;28;20063;-65
2021/05/02 05:11:07;;;;;;;23.60;12.85;;;5.90;99.90;;;;;;5093302;28;20024;-65
2021/05/02 05:13:33;;;;;;;24.27;12.73;;;5.90;99.90;;;;;;5094723;28;20084;-65
2021/05/02 05:16:00;;;;;;;20.67;11.63;;;5.90;99.90;;;;;;5093234;28;20024;-64
2021/05/02 05:18:26;;;;;;;17.83;12.00;;;6.00;99.90;;;;;;5094633;28;20032;-64
2021/05/02 05:20:53;;;;;;;20.73;12.43;;;6.10;99.90;;;;;;5094438;28;20020;-65
2021/05/02 05:23:19;;;;;;;24.05;12.50;;;6.10;99.90;;;;;;5094560;28;20016;-65
2021/05/02 05:25:45;;;;;;;23.42;12.52;;;6.10;99.90;;;;;;5093311;28;20611;-65
2021/05/02 05:28:11;;;;;;;23.08;12.65;;;6.10;99.90;;;;;;5092743;28;20411;-65
2021/05/02 05:30:37;;;;;;;21.13;12.68;;;6.10;99.90;;;;;;5094368;28;20031;-65
2021/05/02 05:33:04;;;;;;;22.85;12.95;;;6.10;99.90;;;;;;5094148;28;20369;-64
2021/05/02 05:35:30;;;;;;;21.15;11.75;;;6.10;99.90;;;;;;5094343;28;20024;-64
2021/05/02 05:37:55;;;;;;;22.67;11.77;;;6.10;99.90;;;;;;5094352;28;20024;-64
2021/05/02 05:40:21;;;;;;;27.55;13.38;;;6.20;99.90;;;;;;5093970;28;20059;-64
2021/05/02 05:42:46;;;;;;;22.10;13.10;;;6.20;99.90;;;;;;5094160;28;20051;-65
2021/05/02 05:45:12;;;;;;;18.42;11.93;;;6.10;99.90;;;;;;5094216;28;20377;-64
2021/05/02 05:47:38;;;;;;;20.92;12.38;;;6.20;99.90;;;;;;5094303;28;20028;-67
2021/05/02 05:50:11;;;;;;;23.65;12.77;;;6.20;99.90;;;;;;5093844;28;20024;-64
2021/05/02 05:52:36;;;;;;;20.67;12.60;;;6.20;99.90;;;;;;5094184;28;20069;-65
2021/05/02 05:55:02;;;;;;;21.23;12.13;;;6.30;99.90;;;;;;5093583;28;20103;-65
2021/05/02 05:57:28;;;;;;;21.65;11.55;;;6.20;99.90;;;;;;5094140;28;20477;-65
2021/05/02 05:59:53;;;;;;;30.95;12.32;;;6.20;99.90;;;;;;5093502;28;20020;-65
2021/05/02 06:02:19;;;;;;;20.40;11.75;;;6.40;99.90;;;;;;5094062;28;20028;-64
2021/05/02 06:04:44;;;;;;;19.48;11.10;;;6.40;99.90;;;;;;5093480;28;20028;-65
2021/05/02 06:07:10;;;;;;;22.90;11.88;;;6.50;99.90;;;;;;5093760;28;20099;-64
2021/05/02 06:09:35;;;;;;;18.23;11.23;;;6.70;99.90;;;;;;5093655;28;20048;-65
2021/05/02 06:12:01;;;;;;;15.43;9.98;;;7.00;99.90;;;;;;5093948;28;20479;-64
2021/05/02 06:14:26;;;;;;;18.23;10.68;;;7.10;99.90;;;;;;5092146;28;20028;-65
2021/05/02 06:16:52;;;;;;;17.20;10.80;;;7.20;99.90;;;;;;5093913;28;20031;-64
2021/05/02 06:19:17;;;;;;;16.83;9.57;;;7.30;99.90;;;;;;5092042;28;20423;-65
2021/05/02 06:21:43;;;;;;;17.83;9.68;;;7.30;99.90;;;;;;5092097;28;20028;-65
2021/05/02 06:24:09;;;;;;;14.73;8.20;;;7.40;99.90;;;;;;5093288;28;20024;-64
2021/05/02 06:26:34;;;;;;;16.02;9.00;;;7.40;99.90;;;;;;5093850;28;20028;-65
2021/05/02 06:29:00;;;;;;;20.00;8.88;;;7.40;99.90;;;;;;5092312;28;20052;-64
2021/05/02 06:31:25;;;;;;;14.45;10.23;;;7.40;99.90;;;;;;5095266;28;20028;-65
2021/05/02 06:33:51;;;;;;;17.20;9.30;;;7.20;99.90;;;;;;5097473;28;20091;-64
2021/05/02 06:36:16;;;;;;;15.05;8.05;;;7.00;99.90;;;;;;5097715;28;20039;-64
2021/05/02 06:38:42;;;;;;;15.07;8.80;;;6.80;99.90;;;;;;5095952;28;20028;-65
2021/05/02 06:41:08;;;;;;;17.98;10.10;;;6.70;99.90;;;;;;5097614;28;20032;-65
2021/05/02 06:43:34;;;;;;;15.25;9.40;;;6.60;99.90;;;;;;5097280;28;20484;-65
2021/05/02 06:45:59;;;;;;;17.55;9.52;;;6.60;99.90;;;;;;5097514;28;20028;-65
2021/05/02 06:48:25;;;;;;;15.95;9.88;;;6.60;99.90;;;;;;5095802;28;20423;-65
2021/05/02 06:50:51;;;;;;;17.55;10.30;;;6.80;99.90;;;;;;5095614;28;20024;-65
2021/05/02 06:53:18;;;;;;;16.30;9.57;;;6.80;99.90;;;;;;5095548;28;20020;-65
2021/05/02 06:55:44;;;;;;;18.48;8.95;;;7.00;99.90;;;;;;5095478;28;20380;-65
2021/05/02 06:58:10;;;;;;;16.80;9.52;;;7.00;99.90;;;;;;5095775;28;20012;-64
2021/05/02 07:00:37;;;;;;;15.45;8.73;;;7.10;99.90;;;;;;5096716;28;20020;-65
2021/05/02 07:03:04;;;;;;;15.57;8.60;;;7.10;99.90;;;;;;5096639;28;20023;-65
2021/05/02 07:05:30;;;;;;;13.90;8.88;;;7.10;99.90;;;;;;5097133;28;20042;-65
2021/05/02 07:07:55;;;;;;;17.20;8.93;;;7.20;99.90;;;;;;5097102;28;20473;-65
2021/05/02 07:10:21;;;;;;;14.13;7.68;;;7.20;99.90;;;;;;5096413;28;20031;-65
2021/05/02 07:12:47;;;;;;;15.00;8.55;;;7.10;99.90;;;;;;5096983;28;20047;-65
2021/05/02 07:15:13;;;;;;;12.52;7.57;;;7.30;99.90;;;;;;5096619;28;20020;-65
2021/05/02 07:17:39;;;;;;;13.63;8.35;;;7.30;99.90;;;;;;5096317;28;20020;-64
2021/05/02 07:20:06;;;;;;;16.38;7.68;;;7.40;99.90;;;;;;5096288;28;20035;-65
2021/05/02 07:22:33;;;;;;;13.15;7.05;;;7.50;99.90;;;;;;5096527;28;20034;-65
2021/05/02 07:24:59;;;;;;;12.50;7.70;;;7.60;99.90;;;;;;5095304;28;20420;-65
2021/05/02 07:27:24;;;;;;;13.57;7.07;;;7.70;99.90;;;;;;5096706;28;20032;-65
2021/05/02 07:29:50;;;;;;;9.98;6.55;;;8.00;99.90;;;;;;5096628;28;20119;-65
2021/05/02 07:32:15;;;;;;;12.43;6.13;;;8.10;99.90;;;;;;5096648;28;20047;-65
2021/05/02 07:34:41;;;;;;;14.70;6.40;;;8.20;99.90;;;;;;5096006;28;20028;-65
2021/05/02 07:37:07;;;;;;;13.15;5.03;;;8.70;99.90;;;;;;5096553;28;20032;-65
2021/05/02 07:39:32;;;;;;;8.23;4.30;;;9.30;99.90;;;;;;5096498;28;20119;-65
2021/05/02 07:41:58;;;;;;;10.25;4.25;;;9.80;99.90;;;;;;5096097;28;20032;-65
2021/05/02 07:44:24;;;;;;;9.73;3.60;;;9.80;99.90;;;;;;5096409;28;20024;-65
2021/05/02 07:46:49;;;;;;;7.47;3.60;;;10.40;99.90;;;;;;5096340;28;20032;-65
2021/05/02 07:49:15;;;;;;;6.85;3.22;;;10.70;99.90;;;;;;5094548;28;20048;-65
2021/05/02 07:51:40;;;;;;;7.47;2.92;;;11.40;99.90;;;;;;5096262;28;20400;-65
2021/05/02 07:54:06;;;;;;;5.95;2.85;;;11.50;99.90;;;;;;5095951;28;20024;-65
2021/05/02 07:56:32;;;;;;;7.85;2.80;;;12.00;99.90;;;;;;5095879;28;20082;-65
2021/05/02 07:58:57;;;;;;;5.50;3.40;;;11.50;99.90;;;;;;5096046;28;20031;-65
2021/05/02 08:01:23;;;;;;;5.43;2.92;;;10.80;99.90;;;;;;5095517;28;20442;-65
2021/05/02 08:03:48;;;;;;;5.78;3.08;;;10.40;99.90;;;;;;5094461;28;20028;-65
2021/05/02 08:06:14;;;;;;;8.70;3.33;;;10.20;99.90;;;;;;5094541;28;20058;-65
2021/05/02 08:08:40;;;;;;;7.10;3.22;;;10.00;99.90;;;;;;5095294;28;20032;-65
2021/05/02 08:11:05;;;;;;;6.40;3.10;;;10.70;99.90;;;;;;5094059;28;20024;-65
2021/05/02 08:13:31;;;;;;;5.47;3.33;;;11.80;99.90;;;;;;5095826;28;20143;-65
2021/05/02 08:15:57;;;;;;;5.70;2.58;;;12.10;99.90;;;;;;5095211;28;20070;-65
2021/05/02 08:18:22;;;;;;;4.97;2.40;;;12.70;99.90;;;;;;5095423;28;20546;-65
2021/05/02 08:20:48;;;;;;;7.75;2.60;;;12.00;99.90;;;;;;5095660;28;20075;-65
2021/05/02 08:23:13;;;;;;;7.22;2.80;;;11.20;99.90;;;;;;5094188;28;20020;-65
2021/05/02 08:25:39;;;;;;;8.55;3.10;;;10.90;99.90;;;;;;5095624;28;20031;-65
2021/05/02 08:28:05;;;;;;;5.00;2.85;;;10.40;99.90;;;;;;5095607;28;20024;-65
2021/05/02 08:30:33;;;;;;;6.90;2.85;;;10.30;99.90;;;;;;5095418;28;20035;-65
2021/05/02 08:33:00;;;;;;;3.95;2.40;;;10.20;99.90;;;;;;5095146;28;20028;-65
2021/05/02 08:35:25;;;;;;;5.25;2.88;;;10.40;99.90;;;;;;5095413;28;20020;-65
2021/05/02 08:37:51;;;;;;;5.40;2.90;;;10.80;99.90;;;;;;5095343;28;20031;-65
2021/05/02 08:40:17;;;;;;;2.72;1.90;;;11.00;99.90;;;;;;5095338;28;20384;-65
2021/05/02 08:42:42;;;;;;;8.68;2.50;;;11.10;99.90;;;;;;5094973;28;20103;-65
2021/05/02 08:45:09;;;;;;;7.95;2.63;;;11.30;99.90;;;;;;5095220;28;20024;-65
2021/05/02 08:47:35;;;;;;;5.47;2.58;;;11.30;99.90;;;;;;5094877;28;20523;-65
2021/05/02 08:50:04;;;;;;;4.53;2.60;;;11.00;99.90;;;;;;5094338;28;20477;-65
2021/05/02 08:52:30;;;;;;;5.30;2.50;;;11.20;99.90;;;;;;5095045;28;20020;-65
2021/05/02 08:54:55;;;;;;;4.68;2.55;;;11.40;99.90;;;;;;5093115;28;20046;-65
2021/05/02 08:57:21;;;;;;;5.65;2.80;;;11.00;99.90;;;;;;5094999;28;20472;-65
2021/05/02 08:59:47;;;;;;;4.28;2.20;;;10.80;99.90;;;;;;5094668;28;20454;-65
2021/05/02 09:02:29;;;;;;;9.18;2.65;;;11.00;99.90;;;;;;5094644;28;20020;-65
2021/05/02 09:04:56;;;;;;;4.22;2.22;;;11.50;99.90;;;;;;5094632;28;20376;-65
2021/05/02 09:07:22;;;;;;;4.95;2.30;;;12.80;99.90;;;;;;5094814;28;20029;-66
2021/05/02 09:09:49;;;;;;;4.70;2.55;;;14.20;99.90;;;;;;5094409;28;20028;-66
2021/05/02 09:12:24;;;;;;;3.75;2.47;;;13.90;99.90;;;;;;5094203;28;20020;-65
2021/05/02 09:14:51;;;;;;;5.80;2.20;;;13.80;99.90;;;;;;5094686;28;20024;-65
2021/05/02 09:17:26;;;;;;;3.47;2.00;;;15.40;99.90;;;;;;5094364;28;20069;-66
2021/05/02 09:19:52;;;;;;;5.10;1.90;;;16.00;94.60;;;;;;5094526;28;20023;-65
2021/05/02 09:22:20;;;;;;;2.78;1.90;;;15.50;90.70;;;;;;5093464;28;20377;-66
2021/05/02 09:25:10;;;;;;;4.60;2.08;;;16.00;87.90;;;;;;5094590;28;20504;-66
2021/05/02 09:27:47;;;;;;;3.80;1.83;;;15.10;87.40;;;;;;5094105;28;20104;-65
2021/05/02 09:30:17;;;;;;;3.67;1.77;;;14.80;89.80;;;;;;5094376;28;20020;-66
2021/05/02 09:32:44;;;;;;;3.80;1.98;;;16.10;84.00;;;;;;5094383;28;20068;-66
2021/05/02 09:35:27;;;;;;;3.40;2.10;;;16.60;77.00;;;;;;5094326;28;20027;-65
2021/05/02 09:38:07;;;;;;;4.78;1.67;;;17.30;72.70;;;;;;5094187;28;20385;-66
2021/05/02 09:40:49;;;;;;;3.25;1.70;;;17.70;68.20;;;;;;5094046;28;20596;-66
2021/05/02 09:43:36;;;;;;;5.53;2.25;;;16.60;75.20;;;;;;5093961;28;20061;-65
2021/05/02 09:49:13;;;;;;;4.25;2.70;;;13.60;96.30;;;;;;5112232;27;20404;-65
2021/05/02 09:51:52;;;;;;;5.03;2.85;;;13.00;99.90;;;;;;5110213;28;20024;-65
2021/05/02 09:54:19;;;;;;;5.40;2.75;;;12.60;99.90;;;;;;5111887;28;20031;-66
2021/05/02 09:56:49;;;;;;;4.70;2.22;;;13.10;99.90;;;;;;5110303;28;20024;-66
2021/05/02 09:59:25;;;;;;;7.50;2.70;;;13.00;99.30;;;;;;5110573;28;20111;-65
2021/05/02 10:04:52;;;;;;;5.80;2.72;;;12.10;99.90;;;;;;5110868;27;20390;-66
2021/05/02 10:07:23;;;;;;;5.95;3.13;;;12.00;99.90;;;;;;5111949;28;20054;-66
2021/05/02 10:09:50;;;;;;;7.05;2.80;;;12.50;99.50;;;;;;5111877;28;20064;-65
2021/05/02 10:12:16;;;;;;;5.03;2.40;;;13.80;97.10;;;;;;5111868;28;20051;-66
2021/05/02 10:14:44;;;;;;;4.55;2.13;;;15.00;92.70;;;;;;5110365;28;20027;-66
2021/05/02 10:17:10;;;;;;;5.53;2.55;;;15.90;87.00;;;;;;5111731;28;20051;-66
2021/05/02 10:19:36;;;;;;;3.20;2.58;;;15.80;87.70;;;;;;5111430;28;20058;-66
2021/05/02 10:22:02;;;;;;;4.97;2.53;;;14.70;91.30;;;;;;5109924;28;20119;-66
2021/05/02 10:24:28;;;;;;;5.53;2.42;;;13.70;92.40;;;;;;5111565;28;20077;-66
2021/05/02 10:26:55;;;;;;;3.58;2.40;;;13.50;94.80;;;;;;5111570;28;20404;-66
2021/05/02 10:29:39;;;;;;;5.22;2.53;;;13.10;96.60;;;;;;5111176;28;20023;-66
2021/05/02 10:32:08;;;;;;;3.20;2.42;;;12.60;98.20;;;;;;5110927;28;20016;-66
2021/05/02 10:34:39;;;;;;;6.32;2.53;;;11.90;98.60;;;;;;5111451;28;20031;-66
2021/05/02 10:40:07;;;;;;;5.63;2.60;;;11.40;99.90;;;;;;5110965;27;20386;-66
2021/05/02 10:42:35;;;;;;;4.68;2.63;;;11.50;99.90;;;;;;5111307;28;20062;-65
2021/05/02 10:48:08;;;;;;;11.13;2.90;;;11.50;99.90;;;;;;5112067;27;20400;-65
2021/05/02 10:50:40;;;;;;;5.35;2.40;;;11.60;99.90;;;;;;5110114;28;20077;-66
2021/05/02 10:53:10;;;;;;;8.18;3.13;;;11.80;99.90;;;;;;5111793;28;20580;-66
2021/05/02 10:56:01;;;;;;;5.97;2.50;;;12.50;99.90;;;;;;5111762;28;20111;-65
2021/05/02 10:58:28;;;;;;;5.03;2.70;;;12.90;99.40;;;;;;5111186;28;20104;-66
2021/05/02 11:01:03;;;;;;;4.78;2.60;;;12.50;99.90;;;;;;5111727;28;20373;-66
2021/05/02 11:06:15;;;;;;;8.68;3.10;;;12.80;99.90;;;;;;5091864;28;20751;-66
2021/05/02 11:08:58;;;;;;;7.18;2.72;;;13.00;99.90;;;;;;5091031;28;20127;-66
2021/05/02 11:16:47;;;;;;;5.90;2.70;;;13.10;99.50;;;;;;5112235;27;20300;-65
2021/05/02 11:27:27;;;;;;;4.85;2.35;;;12.30;99.90;;;;;;5112171;27;20351;-66
2021/05/02 11:35:11;;;;;;;6.85;2.80;;;12.10;99.90;;;;;;5112180;27;20288;-65
2021/05/02 11:43:16;;;;;;;6.03;2.40;;;11.90;99.90;;;;;;5112244;27;20351;-65
2021/05/02 11:48:22;;;;;;;6.75;2.78;;;12.00;99.90;;;;;;5112113;27;20359;-66
2021/05/02 11:50:52;;;;;;;5.28;2.30;;;11.80;99.90;;;;;;5110444;28;20099;-66
2021/05/02 11:53:39;;;;;;;3.65;2.55;;;11.70;99.90;;;;;;5111313;28;20108;-65
2021/05/02 11:56:24;;;;;;;3.42;2.47;;;11.60;99.90;;;;;;5111285;28;20099;-65
2021/05/02 11:58:52;;;;;;;6.03;2.40;;;11.60;99.90;;;;;;5111316;28;20022;-66
2021/05/02 12:01:22;;;;;;;4.00;1.90;;;11.80;99.90;;;;;;5111146;28;20369;-66
2021/05/02 12:03:48;;;;;;;4.93;1.88;;;11.90;99.90;;;;;;5111643;28;20023;-65
2021/05/02 12:06:32;;;;;;;4.00;2.03;;;11.90;99.90;;;;;;5110306;28;20026;-66
2021/05/02 12:08:59;;;;;;;3.13;1.85;;;11.90;99.90;;;;;;5109911;28;20400;-66
2021/05/02 12:11:26;;;;;;;4.30;1.90;;;11.70;96.00;;;;;;5111271;28;20043;-65
2021/05/02 12:13:55;;;;;;;8.63;2.30;;;11.60;97.40;;;;;;5111234;28;20495;-66
2021/05/02 12:16:24;;;;;;;4.25;1.98;;;11.60;97.60;;;;;;5110004;28;20024;-66
2021/05/02 12:18:57;;;;;;;4.25;1.92;;;11.70;98.70;;;;;;5109442;28;20402;-66
2021/05/02 12:21:36;;;;;;;3.85;1.95;;;11.90;99.10;;;;;;5111037;28;20099;-66
2021/05/02 12:24:13;;;;;;;3.25;1.70;;;12.40;98.40;;;;;;5111228;28;20042;-65
2021/05/02 12:26:48;;;;;;;5.93;2.25;;;12.50;96.50;;;;;;5110930;28;20421;-66
2021/05/02 12:29:18;;;;;;;5.35;2.30;;;12.40;95.60;;;;;;5110927;28;20016;-66
2021/05/02 12:31:57;;;;;;;3.03;1.90;;;12.10;94.70;;;;;;5111197;28;20020;-66
2021/05/02 12:34:25;;;;;;;4.32;1.83;;;12.00;93.80;;;;;;5110850;28;20020;-66
2021/05/02 12:36:52;;;;;;;2.72;1.73;;;11.80;95.10;;;;;;5111089;28;20016;-66
2021/05/02 12:39:18;;;;;;;2.55;1.75;;;11.80;94.10;;;;;;5111053;28;20048;-66
2021/05/02 12:41:53;;;;;;;2.38;1.90;;;11.80;95.70;;;;;;5111011;28;20028;-65
2021/05/02 12:44:21;;;;;;;6.43;1.92;;;11.70;97.70;;;;;;5109458;28;20069;-65
2021/05/02 12:46:51;;;;;;;2.88;1.70;;;11.70;97.50;;;;;;5110425;28;20050;-65
2021/05/02 12:49:19;;;;;;;3.80;2.08;;;11.90;96.30;;;;;;5110567;28;20478;-65
2021/05/02 12:51:49;;;;;;;5.50;2.08;;;12.00;96.70;;;;;;5110773;28;20016;-65
2021/05/02 12:54:18;;;;;;;3.20;1.95;;;12.20;96.80;;;;;;5109298;28;20545;-66
2021/05/02 12:56:58;;;;;;;3.08;1.85;;;12.20;96.40;;;;;;5110702;28;20020;-65
2021/05/02 12:59:39;;;;;;;4.22;2.22;;;12.10;97.50;;;;;;5098511;28;20369;-66
2021/05/02 13:02:09;;;;;;;2.88;2.10;;;12.00;97.70;;;;;;5096430;28;20035;-65
2021/05/02 13:04:56;;;;;;;4.63;2.20;;;11.60;98.90;;;;;;5096975;28;20028;-66
2021/05/02 13:07:43;;;;;;;4.95;2.20;;;11.50;99.70;;;;;;5095386;28;20046;-66
2021/05/02 13:10:28;;;;;;;5.57;1.75;;;11.60;99.90;;;;;;5094984;28;20381;-65
2021/05/02 13:13:03;;;;;;;5.68;1.73;;;11.40;99.70;;;;;;5096820;28;20039;-66
2021/05/02 13:15:44;;;;;;;1.70;1.60;;;11.40;99.80;;;;;;5096822;28;20020;-66
2021/05/02 13:18:13;;;;;;;2.97;1.55;;;11.30;99.30;;;;;;5096704;28;20024;-66
2021/05/02 13:20:56;;;;;;;4.40;2.22;;;11.50;99.90;;;;;;5096639;28;20092;-65
2021/05/02 13:23:38;;;;;;;4.57;2.10;;;11.50;99.30;;;;;;5096643;28;20023;-66
2021/05/02 13:26:21;;;;;;;2.67;1.80;;;11.70;99.00;;;;;;5096529;28;20028;-66
2021/05/02 13:29:11;;;;;;;2.20;1.60;;;12.30;98.20;;;;;;5094995;28;20021;-66
2021/05/02 13:32:00;;;;;;;3.28;1.88;;;13.20;96.80;;;;;;5112248;27;20343;-65
2021/05/02 13:34:29;;;;;;;2.95;1.55;;;13.30;94.00;;;;;;5111943;28;20511;-66